createdAt,value
2018-02-27T00:02:15.104Z,7.93
2018-02-27T00:04:43.700Z,8.03
2018-02-27T00:07:12.252Z,9.03
2018-02-27T00:09:40.808Z,9.10
2018-02-27T00:12:09.504Z,11.57
2018-02-27T00:14:38.052Z,10.37
2018-02-27T00:17:06.816Z,10.60
2018-02-27T00:19:36.423Z,9.83
2018-02-27T00:22:05.014Z,10.57
2018-02-27T00:24:33.675Z,11.47
2018-02-27T00:27:02.554Z,12.27
2018-02-27T00:29:31.101Z,12.43
2018-02-27T00:32:00.525Z,13.03
2018-02-27T00:34:30.142Z,13.30
2018-02-27T00:36:58.868Z,13.20
2018-02-27T00:39:27.442Z,15.10
2018-02-27T00:41:56.399Z,23.53
2018-02-27T00:44:25.120Z,18.80
2018-02-27T00:46:53.759Z,14.17
2018-02-27T00:49:22.493Z,13.83
2018-02-27T00:51:51.146Z,10.87
2018-02-27T00:54:19.766Z,11.80
2018-02-27T00:56:48.356Z,9.90
2018-02-27T00:59:16.917Z,10.00
2018-02-27T01:01:45.615Z,10.07
2018-02-27T01:04:14.301Z,9.57
2018-02-27T01:06:43.047Z,8.40
2018-02-27T01:09:12.497Z,8.67
2018-02-27T01:11:41.180Z,8.53
2018-02-27T01:14:09.747Z,8.63
2018-02-27T01:16:38.454Z,8.57
2018-02-27T01:19:07.337Z,9.03
2018-02-27T01:21:36.025Z,10.13
2018-02-27T01:24:04.610Z,9.37
2018-02-27T01:26:33.499Z,8.83
2018-02-27T01:29:02.037Z,8.70
2018-02-27T01:31:30.727Z,8.60
2018-02-27T01:33:59.620Z,11.07
2018-02-27T01:36:28.165Z,9.17
2018-02-27T01:38:56.716Z,8.73
2018-02-27T01:41:25.510Z,9.43
2018-02-27T01:43:54.054Z,9.43
2018-02-27T01:46:22.597Z,9.73
2018-02-27T01:48:51.188Z,8.90
2018-02-27T01:51:21.245Z,9.90
2018-02-27T01:53:49.788Z,10.07
2018-02-27T01:56:18.600Z,9.97
2018-02-27T01:58:47.940Z,9.43
2018-02-27T02:01:16.642Z,9.63
2018-02-27T02:03:45.482Z,10.03
2018-02-27T02:06:14.212Z,9.17
2018-02-27T02:08:42.755Z,8.90
2018-02-27T02:11:11.493Z,10.77
2018-02-27T02:13:40.040Z,10.63
2018-02-27T02:16:08.742Z,10.53
2018-02-27T02:18:37.537Z,10.00
2018-02-27T02:21:06.230Z,10.10
2018-02-27T02:23:34.817Z,11.67
2018-02-27T02:26:04.006Z,11.27
2018-02-27T02:31:06.096Z,11.10
2018-02-27T02:33:34.650Z,13.03
2018-02-27T02:36:03.358Z,13.30
2018-02-27T02:38:32.253Z,14.53
2018-02-27T02:41:00.942Z,13.20
2018-02-27T02:43:29.509Z,12.03
2018-02-27T02:45:58.309Z,10.97
2018-02-27T02:48:26.871Z,11.23
2018-02-27T02:50:55.421Z,13.07
2018-02-27T02:53:25.961Z,16.23
2018-02-27T02:55:54.688Z,16.23
2018-02-27T02:58:23.321Z,14.13
2018-02-27T03:00:52.882Z,13.63
2018-02-27T03:03:21.532Z,12.67
2018-02-27T03:05:50.255Z,12.90
2018-02-27T03:08:19.346Z,25.13
2018-02-27T03:10:48.081Z,14.63
2018-02-27T03:13:17.423Z,12.23
2018-02-27T03:15:46.270Z,10.73
2018-02-27T03:18:15.734Z,12.47
2018-02-27T03:20:44.351Z,10.60
2018-02-27T03:23:13.920Z,9.30
2018-02-27T03:25:42.605Z,9.00
2018-02-27T03:28:11.233Z,8.53
2018-02-27T03:30:40.790Z,7.50
2018-02-27T03:33:09.443Z,7.83
2018-02-27T03:35:39.036Z,8.00
2018-02-27T03:38:08.799Z,7.07
2018-02-27T03:40:38.308Z,7.13
2018-02-27T03:43:06.993Z,7.67
2018-02-27T03:45:36.086Z,19.77
2018-02-27T03:48:04.668Z,18.60
2018-02-27T03:50:33.358Z,26.57
2018-02-27T03:53:01.960Z,56.70
2018-02-27T03:55:30.729Z,43.00
2018-02-27T03:57:59.370Z,36.07
2018-02-27T04:00:28.102Z,23.40
2018-02-27T04:02:56.788Z,7.93
2018-02-27T04:05:25.377Z,6.87
2018-02-27T04:07:54.056Z,7.70
2018-02-27T04:10:22.746Z,6.80
2018-02-27T04:12:51.432Z,6.60
2018-02-27T04:15:20.167Z,17.53
2018-02-27T04:17:49.615Z,10.23
2018-02-27T04:20:18.253Z,7.77
2018-02-27T04:22:47.797Z,6.53
2018-02-27T04:25:16.497Z,7.03
2018-02-27T04:27:45.074Z,6.57
2018-02-27T04:30:13.667Z,8.30
2018-02-27T04:32:42.235Z,18.53
2018-02-27T04:35:10.834Z,10.10
2018-02-27T04:37:39.677Z,24.90
2018-02-27T04:40:08.402Z,10.50
2018-02-27T04:42:37.062Z,10.10
2018-02-27T04:45:05.889Z,10.37
2018-02-27T04:47:34.464Z,21.80
2018-02-27T04:50:03.147Z,24.17
2018-02-27T04:52:32.307Z,23.67
2018-02-27T04:55:00.858Z,30.83
2018-02-27T04:57:29.620Z,25.03
2018-02-27T04:59:58.359Z,26.07
2018-02-27T05:02:27.092Z,17.00
2018-02-27T05:04:55.663Z,17.03
2018-02-27T05:07:24.737Z,12.50
2018-02-27T05:09:53.456Z,11.30
2018-02-27T05:12:22.122Z,13.13
2018-02-27T05:14:50.890Z,22.77
2018-02-27T05:17:19.613Z,11.33
2018-02-27T05:19:48.298Z,12.00
2018-02-27T05:22:16.989Z,9.80
2018-02-27T05:24:45.528Z,10.17
2018-02-27T05:27:14.084Z,10.37
2018-02-27T05:29:42.824Z,10.00
2018-02-27T05:32:11.392Z,6.77
2018-02-27T05:34:39.973Z,9.30
2018-02-27T05:37:08.567Z,11.40
2018-02-27T05:39:37.117Z,10.13
2018-02-27T05:42:05.660Z,8.90
2018-02-27T05:44:35.031Z,8.97
2018-02-27T05:47:03.576Z,8.23
2018-02-27T05:49:32.128Z,9.73
2018-02-27T05:52:00.716Z,9.90
2018-02-27T05:54:30.765Z,9.70
2018-02-27T05:56:59.311Z,7.57
2018-02-27T05:59:28.682Z,10.23
2018-02-27T06:01:57.225Z,6.80
2018-02-27T06:04:25.768Z,11.70
2018-02-27T06:06:55.592Z,11.23
2018-02-27T06:09:24.907Z,9.97
2018-02-27T06:11:54.277Z,8.27
2018-02-27T06:14:22.824Z,9.63
2018-02-27T06:16:51.406Z,43.23
2018-02-27T06:19:20.012Z,19.83
2018-02-27T06:21:48.566Z,11.90
2018-02-27T06:24:17.116Z,11.13
2018-02-27T06:26:46.127Z,10.00
2018-02-27T06:29:14.673Z,7.30
2018-02-27T06:31:43.977Z,7.50
2018-02-27T06:34:13.526Z,7.23
2018-02-27T06:36:42.069Z,7.60
2018-02-27T06:39:11.377Z,9.33
2018-02-27T06:41:40.073Z,8.10
2018-02-27T06:44:08.612Z,7.80
2018-02-27T06:46:37.160Z,8.30
2018-02-27T06:49:05.753Z,8.27
2018-02-27T06:51:35.104Z,8.57
2018-02-27T06:54:04.428Z,8.00
2018-02-27T06:56:33.065Z,8.47
2018-02-27T06:59:01.615Z,8.50
2018-02-27T07:01:30.214Z,8.27
2018-02-27T07:03:58.801Z,8.47
2018-02-27T07:06:27.349Z,9.80
2018-02-27T07:08:55.893Z,9.30
2018-02-27T07:11:25.356Z,9.90
2018-02-27T07:13:53.901Z,9.63
2018-02-27T07:16:22.448Z,11.47
2018-02-27T07:18:51.361Z,9.27
2018-02-27T07:21:20.684Z,7.60
2018-02-27T07:23:49.241Z,10.53
2018-02-27T07:26:18.617Z,12.77
2018-02-27T07:28:47.170Z,12.07
2018-02-27T07:31:15.716Z,15.47
2018-02-27T07:33:45.081Z,9.37
2018-02-27T07:36:13.648Z,9.70
2018-02-27T07:38:42.204Z,26.33
2018-02-27T07:41:11.019Z,20.63
2018-02-27T07:43:39.577Z,26.07
2018-02-27T07:46:08.126Z,21.20
2018-02-27T07:48:37.497Z,33.13
2018-02-27T07:51:06.042Z,22.00
2018-02-27T07:53:34.601Z,13.90
2018-02-27T07:56:04.923Z,11.47
2018-02-27T07:58:34.241Z,12.10
2018-02-27T08:01:02.866Z,10.07
2018-02-27T08:03:31.464Z,9.80
2018-02-27T08:06:00.014Z,8.83
2018-02-27T08:08:28.573Z,9.83
2018-02-27T08:10:57.395Z,8.67
2018-02-27T08:13:25.949Z,9.50
2018-02-27T08:15:54.506Z,10.00
2018-02-27T08:18:24.068Z,9.63
2018-02-27T08:20:52.625Z,10.07
2018-02-27T08:23:21.182Z,10.87
2018-02-27T08:25:50.701Z,9.33
2018-02-27T08:28:20.016Z,9.00
2018-02-27T08:30:48.576Z,12.20
2018-02-27T08:33:17.940Z,9.23
2018-02-27T08:35:46.493Z,11.63
2018-02-27T08:38:15.041Z,9.33
2018-02-27T08:40:43.885Z,9.50
2018-02-27T08:43:12.442Z,13.90
2018-02-27T08:45:40.996Z,15.87
2018-02-27T08:48:10.359Z,12.50
2018-02-27T08:50:38.909Z,12.67
2018-02-27T08:53:07.461Z,10.87
2018-02-27T08:55:36.969Z,10.83
2018-02-27T08:58:06.297Z,11.00
2018-02-27T09:00:34.855Z,12.93
2018-02-27T09:03:04.224Z,11.77
2018-02-27T09:05:32.794Z,10.67
2018-02-27T09:08:01.356Z,11.07
2018-02-27T09:10:29.958Z,11.17
2018-02-27T09:12:58.508Z,10.83
2018-02-27T09:15:27.073Z,11.93
2018-02-27T09:17:56.629Z,12.33
2018-02-27T09:20:25.221Z,11.63
2018-02-27T09:22:53.784Z,10.57
2018-02-27T09:25:22.583Z,11.50
2018-02-27T09:27:51.170Z,9.87
2018-02-27T09:30:19.734Z,9.53
2018-02-27T09:32:48.437Z,9.87
2018-02-27T09:35:16.986Z,13.27
2018-02-27T09:37:45.541Z,14.23
2018-02-27T09:40:14.151Z,14.73
2018-02-27T09:42:42.708Z,16.20
2018-02-27T09:45:11.260Z,13.73
2018-02-27T09:47:40.637Z,12.27
2018-02-27T09:50:09.196Z,13.07
2018-02-27T09:52:37.746Z,10.60
2018-02-27T09:55:06.494Z,12.93
2018-02-27T09:57:35.056Z,11.97
2018-02-27T10:00:03.654Z,11.33
2018-02-27T10:02:32.252Z,11.83
2018-02-27T10:05:00.826Z,11.93
2018-02-27T10:07:29.392Z,11.90
2018-02-27T10:09:58.755Z,14.23
2018-02-27T10:12:27.324Z,11.80
2018-02-27T10:14:56.646Z,12.60
2018-02-27T10:17:25.259Z,12.37
2018-02-27T10:19:53.832Z,14.43
2018-02-27T10:22:22.387Z,11.80
2018-02-27T10:24:51.017Z,14.80
2018-02-27T10:27:19.572Z,14.47
2018-02-27T10:29:48.128Z,12.33
2018-02-27T10:32:18.280Z,9.53
2018-02-27T10:34:47.953Z,11.17
2018-02-27T10:37:17.364Z,20.93
2018-02-27T10:39:45.972Z,12.60
2018-02-27T12:17:26.324Z,9.63
2018-02-27T12:19:55.048Z,11.13
2018-02-27T12:22:23.632Z,11.27
2018-02-27T12:24:52.417Z,11.40
2018-02-27T12:27:21.103Z,10.50
2018-02-27T12:29:49.789Z,9.87
2018-02-27T12:32:18.782Z,11.30
2018-02-27T12:34:48.290Z,10.90
2018-02-27T12:37:16.976Z,8.13
2018-02-27T12:39:45.708Z,9.67
2018-02-27T12:42:15.159Z,6.83
2018-02-27T12:44:43.794Z,10.60
2018-02-27T12:47:12.532Z,14.33
2018-02-27T12:49:41.120Z,13.83
2018-02-27T12:52:09.748Z,12.90
2018-02-27T12:54:39.117Z,10.80
2018-02-27T12:57:07.677Z,8.47
2018-02-27T12:59:36.378Z,10.23
2018-02-27T13:02:05.054Z,9.40
2018-02-27T13:04:33.749Z,10.47
2018-02-27T13:07:02.435Z,10.97
2018-02-27T13:09:31.116Z,9.67
2018-02-27T13:11:59.807Z,8.73
2018-02-27T13:14:28.493Z,8.83
2018-02-27T13:16:58.682Z,8.37
2018-02-27T13:19:27.270Z,8.70
2018-02-27T13:21:55.820Z,9.40
2018-02-27T13:24:24.417Z,10.50
2018-02-27T13:26:52.960Z,14.43
2018-02-27T13:29:21.508Z,14.37
2018-02-27T13:31:51.026Z,10.53
2018-02-27T13:34:19.564Z,11.37
2018-02-27T13:36:48.120Z,11.73
2018-02-27T13:39:16.896Z,9.40
2018-02-27T13:41:46.209Z,9.63
2018-02-27T13:44:15.519Z,9.67
2018-02-27T13:46:44.152Z,11.10
2018-02-27T13:49:12.725Z,9.03
2018-02-27T13:51:42.045Z,9.27
2018-02-27T13:54:10.741Z,11.47
2018-02-27T13:56:40.060Z,10.00
2018-02-27T13:59:08.605Z,10.30
2018-02-27T14:01:38.166Z,10.37
2018-02-27T14:04:06.715Z,10.17
2018-02-27T14:06:36.025Z,9.77
2018-02-27T14:09:05.049Z,9.43
2018-02-27T14:11:33.601Z,8.90
2018-02-27T14:14:02.046Z,8.93
2018-02-27T14:16:30.674Z,9.10
2018-02-27T14:18:59.104Z,10.13
2018-02-27T14:21:27.532Z,8.97
2018-02-27T14:23:56.196Z,10.27
2018-02-27T14:26:24.618Z,10.20
2018-02-27T14:28:53.038Z,9.90
2018-02-27T14:31:21.494Z,9.60
2018-02-27T14:33:49.936Z,9.80
2018-02-27T14:36:18.355Z,9.73
2018-02-27T14:38:47.672Z,10.67
2018-02-27T14:41:16.862Z,11.03
2018-02-27T14:43:46.048Z,9.63
2018-02-27T14:46:15.438Z,9.10
2018-02-27T14:48:44.631Z,8.13
2018-02-27T14:51:13.057Z,9.10
2018-02-27T14:53:41.526Z,9.20
2018-02-27T14:56:10.711Z,10.60
2018-02-27T14:58:39.907Z,10.60
2018-02-27T15:01:08.474Z,19.37
2018-02-27T15:03:36.906Z,17.03
2018-02-27T15:06:05.331Z,27.67
2018-02-27T15:08:34.174Z,16.97
2018-02-27T15:11:02.608Z,12.97
2018-02-27T15:13:31.042Z,181.13
2018-02-27T15:15:59.831Z,133.77
2018-02-27T15:18:28.259Z,219.27
2018-02-27T15:20:56.703Z,112.63
2018-02-27T15:23:25.470Z,203.07
2018-02-27T15:25:53.908Z,62.63
2018-02-27T15:28:22.342Z,61.00
2018-02-27T15:30:50.853Z,64.57
2018-02-27T15:33:19.279Z,25.40
2018-02-27T15:35:47.709Z,140.60
2018-02-27T15:38:17.252Z,111.63
2018-02-27T15:40:45.683Z,70.70
2018-02-27T15:43:14.114Z,126.70
2018-02-27T15:45:42.694Z,129.87
2018-02-27T15:48:11.116Z,53.37
2018-02-27T15:50:39.546Z,108.90
2018-02-27T15:53:08.024Z,75.27
2018-02-27T15:55:36.532Z,61.53
2018-02-27T15:58:04.962Z,81.10
2018-02-27T16:00:34.398Z,67.30
2018-02-27T16:03:02.831Z,112.83
2018-02-27T16:05:31.275Z,56.07
2018-02-27T16:07:59.746Z,59.80
2018-02-27T16:10:28.171Z,263.73
2018-02-27T16:12:56.675Z,486.43
2018-02-27T16:15:25.927Z,458.77
2018-02-27T16:17:54.359Z,650.67
2018-02-27T16:20:23.567Z,569.73
2018-02-27T16:22:52.301Z,563.03
2018-02-27T16:25:20.763Z,365.60
2018-02-27T16:27:49.204Z,550.40
2018-02-27T16:30:18.451Z,369.53
2018-02-27T16:32:46.879Z,296.17
2018-02-27T16:35:15.311Z,365.27
2018-02-27T16:37:43.787Z,248.27
2018-02-27T16:40:12.219Z,210.43
2018-02-27T16:42:40.655Z,115.30
2018-02-27T16:45:11.022Z,104.73
2018-02-27T16:47:39.468Z,100.73
2018-02-27T16:50:08.659Z,94.73
2018-02-27T16:52:37.382Z,414.07
2018-02-27T16:55:05.815Z,478.07
2018-02-27T16:57:34.251Z,401.63
2018-02-27T17:00:02.728Z,294.67
2018-02-27T17:02:31.165Z,157.77
2018-02-27T17:04:59.596Z,204.83
2018-02-27T17:07:28.068Z,201.50
2018-02-27T17:09:56.495Z,193.40
2018-02-27T17:12:25.105Z,165.93
2018-02-27T17:14:53.745Z,150.63
2018-02-27T17:17:22.171Z,52.33
2018-02-27T17:19:51.397Z,17.83
2018-02-27T17:22:19.959Z,17.13
2018-02-27T17:24:48.390Z,16.83
2018-02-27T17:27:16.811Z,20.43
2018-02-27T17:29:46.134Z,32.00
2018-02-27T17:32:14.565Z,36.23
2018-02-27T17:34:43.008Z,23.87
2018-02-27T17:37:11.795Z,27.57
2018-02-27T17:39:40.227Z,64.30
2018-02-27T17:42:09.427Z,124.07
2018-02-27T17:44:39.111Z,155.13
2018-02-27T17:47:07.565Z,85.50
2018-02-27T17:49:35.988Z,23.10
2018-02-27T17:52:05.549Z,55.97
2018-02-27T17:54:34.003Z,47.20
2018-02-27T17:57:02.436Z,130.53
2018-02-27T17:59:31.016Z,106.73
2018-02-27T18:01:59.447Z,57.53
2018-02-27T18:04:27.870Z,60.80
2018-02-27T18:06:56.526Z,34.00
2018-02-27T18:09:24.951Z,19.70
2018-02-27T18:11:54.162Z,21.83
2018-02-27T18:14:23.459Z,25.70
2018-02-27T18:16:51.889Z,20.17
2018-02-27T18:19:20.339Z,18.73
2018-02-27T18:21:49.575Z,18.07
2018-02-27T18:24:18.001Z,13.20
2018-02-27T18:26:47.200Z,12.03
2018-02-27T18:29:16.435Z,11.07
2018-02-27T18:31:44.864Z,18.27
2018-02-27T18:34:13.287Z,14.30
2018-02-27T18:36:42.082Z,15.13
2018-02-27T18:39:10.503Z,16.23
2018-02-27T18:41:38.962Z,15.60
2018-02-27T18:44:07.492Z,15.93
2018-02-27T18:46:35.915Z,14.77
2018-02-27T18:49:04.347Z,16.20
2018-02-27T18:51:33.069Z,17.97
2018-02-27T18:54:01.934Z,14.87
2018-02-27T19:14:49.923Z,18.17
2018-02-27T19:17:18.599Z,15.83
2018-02-27T19:19:47.031Z,17.97
2018-02-27T19:22:15.466Z,17.47
2018-02-27T19:24:44.166Z,18.90
2018-02-27T19:27:12.590Z,21.40
2018-02-27T19:29:41.019Z,25.37
2018-02-27T19:32:09.498Z,41.47
2018-02-27T19:34:37.927Z,30.37
2018-02-27T19:37:06.355Z,33.03
2018-02-27T19:39:34.833Z,30.00
2018-02-27T19:42:03.262Z,25.97
2018-02-27T19:44:31.682Z,24.00
2018-02-27T19:47:00.914Z,21.97
2018-02-27T19:49:29.335Z,23.87
2018-02-27T19:51:57.758Z,22.73
2018-02-27T19:54:26.441Z,20.73
2018-02-27T19:56:54.891Z,15.83
2018-02-27T19:59:24.084Z,19.40
2018-02-27T20:01:53.535Z,23.23
2018-02-27T20:04:21.961Z,50.00
2018-02-27T20:06:50.390Z,23.17
2018-02-27T20:09:18.867Z,20.07
2018-02-27T20:11:47.291Z,15.53
2018-02-27T20:14:21.166Z,19.53
2018-02-27T20:16:49.615Z,14.10
2018-02-27T20:19:18.039Z,16.37
2018-02-27T20:21:48.538Z,15.03
2018-02-27T20:24:17.849Z,13.77
2018-02-27T20:26:46.298Z,17.03
2018-02-27T20:29:21.162Z,24.80
2018-02-27T20:31:49.607Z,20.77
2018-02-27T20:34:18.799Z,18.37
2018-02-27T20:36:48.250Z,23.23
2018-02-27T20:39:22.192Z,20.33
2018-02-27T20:41:50.786Z,17.43
2018-02-27T20:44:19.219Z,21.83
2018-02-27T20:46:47.654Z,24.27
2018-02-27T20:49:17.085Z,18.87
2018-02-27T20:51:45.514Z,19.60
2018-02-27T20:54:13.929Z,18.03
2018-02-27T20:56:42.415Z,14.60
2018-02-27T20:59:10.846Z,18.10
2018-02-27T21:01:39.290Z,15.40
2018-02-27T21:04:07.759Z,21.03
2018-02-27T21:06:36.187Z,18.53
2018-02-27T21:09:04.694Z,16.07
2018-02-27T21:11:33.174Z,16.80
2018-02-27T21:14:02.382Z,16.37
2018-02-27T21:16:31.574Z,17.50
2018-02-27T21:19:00.815Z,17.07
2018-02-27T21:21:29.239Z,16.23
2018-02-27T21:23:57.699Z,15.30
2018-02-27T21:26:26.352Z,16.37
2018-02-27T21:28:54.786Z,16.13
2018-02-27T21:31:23.213Z,16.30
2018-02-27T21:33:51.674Z,15.67
2018-02-27T21:36:20.866Z,15.07
2018-02-27T21:38:50.064Z,14.97
2018-02-27T21:41:18.712Z,16.93
2018-02-27T21:43:47.139Z,15.67
2018-02-27T21:46:15.631Z,16.67
2018-02-27T21:48:44.831Z,15.03
2018-02-27T21:51:13.279Z,14.47
2018-02-27T21:53:42.484Z,14.70
2018-02-27T21:56:11.732Z,15.10
2018-02-27T21:58:40.158Z,14.63
2018-02-27T22:01:09.364Z,14.00
2018-02-27T22:03:38.795Z,15.33
2018-02-27T22:06:07.220Z,14.27
2018-02-27T22:08:36.425Z,15.70
2018-02-27T22:11:06.700Z,13.27
2018-02-27T22:13:35.142Z,12.60
2018-02-27T22:16:04.374Z,10.67
2018-02-27T22:18:32.851Z,12.87
2018-02-27T22:21:01.271Z,11.47
2018-02-27T22:23:29.700Z,13.33
2018-02-27T22:25:58.394Z,13.40
2018-02-27T22:28:26.819Z,13.27
2018-02-27T22:30:55.243Z,14.13
2018-02-27T22:33:23.702Z,12.80
2018-02-27T22:35:52.903Z,12.50
2018-02-27T22:38:22.094Z,15.07
2018-02-27T22:40:51.331Z,17.00
2018-02-27T22:43:20.522Z,13.63
2018-02-27T22:45:48.950Z,13.87
2018-02-27T22:48:17.770Z,14.80
2018-02-27T22:50:46.965Z,14.63
2018-02-27T22:53:16.161Z,12.43
2018-02-27T22:55:45.406Z,14.03
2018-02-27T22:58:13.830Z,14.37
2018-02-27T23:00:43.019Z,12.83
2018-02-27T23:03:11.854Z,13.33
2018-02-27T23:05:40.280Z,13.80
2018-02-27T23:08:08.698Z,14.60
2018-02-27T23:10:38.319Z,12.90
2018-02-27T23:13:06.759Z,13.27
2018-02-27T23:15:35.785Z,12.27
2018-02-27T23:18:04.378Z,11.63
2018-02-27T23:20:32.811Z,13.60
2018-02-27T23:23:01.240Z,22.20
2018-02-27T23:25:48.255Z,42.30
2018-02-27T23:28:18.215Z,179.90
2018-02-27T23:30:47.098Z,54.63
2018-02-27T23:33:31.902Z,19.60
2018-02-27T23:36:01.095Z,14.73
2018-02-27T23:38:30.294Z,11.23
2018-02-27T23:40:59.834Z,11.30
2018-02-27T23:43:28.258Z,12.23
2018-02-27T23:45:56.690Z,12.07
2018-02-27T23:48:25.474Z,13.23
2018-02-27T23:50:53.899Z,15.57
2018-02-27T23:53:22.334Z,13.07
2018-02-27T23:55:51.221Z,13.00
2018-02-27T23:58:19.780Z,12.87
